Time;durP1;ratioP1;P1;durP2;ratioP2;P2;SDS_P1;SDS_P2;PMS_P1;PMS_P2;Temp;Humidity;BMP_temperature;BMP_pressure;BME280_temperature;BME280_humidity;BME280_pressure;Samples;Min_cycle;Max_cycle;Signal;HPM_P1;HPM_P2
2021/08/30 00:02:07;;;;;;;23.55;13.93;;;18.70;99.90;;;;;;5070272;28;20477;-80
2021/08/30 00:04:33;;;;;;;20.85;14.00;;;18.70;99.90;;;;;;5062207;28;20028;-80
2021/08/30 00:07:00;;;;;;;19.52;13.27;;;18.70;99.90;;;;;;5058390;28;20093;-80
2021/08/30 00:09:26;;;;;;;20.60;12.80;;;18.70;99.90;;;;;;5068111;28;20025;-81
2021/08/30 00:11:52;;;;;;;20.13;13.35;;;18.70;99.90;;;;;;5064693;28;20021;-80
2021/08/30 00:14:18;;;;;;;22.63;14.02;;;18.80;99.90;;;;;;5067895;28;20102;-81
2021/08/30 00:16:44;;;;;;;21.50;12.88;;;18.70;99.90;;;;;;5066744;28;20029;-81
2021/08/30 00:19:10;;;;;;;20.27;13.68;;;18.70;99.90;;;;;;5059601;28;20024;-80
2021/08/30 00:21:35;;;;;;;21.48;12.40;;;18.70;99.90;;;;;;5064963;28;20024;-80
2021/08/30 00:24:01;;;;;;;21.88;13.07;;;18.70;99.90;;;;;;5064424;28;20918;-80
2021/08/30 00:26:27;;;;;;;18.30;12.02;;;18.70;99.90;;;;;;5067565;28;20028;-78
2021/08/30 00:28:52;;;;;;;17.95;13.75;;;18.60;99.90;;;;;;5047588;28;20161;-80
2021/08/30 00:31:18;;;;;;;25.63;15.20;;;18.60;99.90;;;;;;5066229;28;20029;-81
2021/08/30 00:33:44;;;;;;;27.15;15.13;;;18.60;99.90;;;;;;5074108;28;20108;-80
2021/08/30 00:36:10;;;;;;;24.15;14.80;;;18.70;99.90;;;;;;5071297;28;20074;-78
2021/08/30 00:38:36;;;;;;;26.58;14.90;;;18.70;99.90;;;;;;5065580;28;20033;-80
2021/08/30 00:41:03;;;;;;;25.95;14.85;;;18.70;99.90;;;;;;5053052;28;20033;-80
2021/08/30 00:43:28;;;;;;;24.05;14.00;;;18.70;99.90;;;;;;5059697;28;20056;-80
2021/08/30 00:45:54;;;;;;;24.58;14.75;;;18.70;99.90;;;;;;5071990;28;20056;-80
2021/08/30 00:48:20;;;;;;;23.50;14.23;;;18.80;99.90;;;;;;5065931;28;20028;-80
2021/08/30 00:50:45;;;;;;;22.20;14.70;;;18.80;99.90;;;;;;5069895;28;20448;-80
2021/08/30 00:53:11;;;;;;;20.58;14.77;;;18.70;99.90;;;;;;5067121;28;20086;-80
2021/08/30 00:55:37;;;;;;;26.92;15.15;;;18.80;99.90;;;;;;5063007;28;20100;-79
2021/08/30 00:58:03;;;;;;;24.58;15.20;;;18.70;99.90;;;;;;5069756;28;20025;-81
2021/08/30 01:00:29;;;;;;;24.17;15.07;;;18.70;99.90;;;;;;5067978;28;20660;-81
2021/08/30 01:02:55;;;;;;;36.30;13.38;;;18.80;99.90;;;;;;5073430;28;20021;-80
2021/08/30 01:05:21;;;;;;;18.95;13.63;;;18.80;99.90;;;;;;5065322;28;20123;-80
2021/08/30 01:08:05;;;;;;;24.73;14.27;;;18.80;99.90;;;;;;5070176;28;20062;-81
2021/08/30 01:10:51;;;;;;;19.73;13.90;;;18.80;99.90;;;;;;5063470;28;20044;-80
2021/08/30 01:13:58;;;;;;;24.88;14.63;;;18.70;99.90;;;;;;5064460;28;20025;-80
2021/08/30 01:16:26;;;;;;;21.17;14.10;;;18.70;99.90;;;;;;5050681;28;20499;-81
2021/08/30 01:18:53;;;;;;;22.27;15.23;;;18.70;99.90;;;;;;5061064;28;20489;-79
2021/08/30 01:21:26;;;;;;;20.75;13.90;;;18.70;99.90;;;;;;5064418;28;20090;-80
2021/08/30 01:24:04;;;;;;;22.27;14.63;;;18.70;99.90;;;;;;5067686;28;20028;-80
2021/08/30 01:26:47;;;;;;;23.42;14.23;;;18.70;99.90;;;;;;5078496;28;20079;-80
2021/08/30 01:29:15;;;;;;;24.90;14.70;;;18.80;99.90;;;;;;5073543;28;20036;-80
2021/08/30 01:31:52;;;;;;;22.70;14.70;;;18.70;99.90;;;;;;5069844;28;20020;-80
2021/08/30 01:34:20;;;;;;;21.95;14.57;;;18.70;99.90;;;;;;5067042;28;20505;-80
2021/08/30 01:36:48;;;;;;;21.20;14.40;;;18.70;99.90;;;;;;5071600;28;20020;-81
2021/08/30 01:39:14;;;;;;;23.33;14.48;;;18.70;99.90;;;;;;5065097;28;20033;-80
2021/08/30 01:41:40;;;;;;;22.58;14.18;;;18.70;99.90;;;;;;5067578;28;20459;-80
2021/08/30 01:44:08;;;;;;;24.33;15.55;;;18.70;99.90;;;;;;5068476;28;20051;-80
2021/08/30 01:46:38;;;;;;;21.30;14.15;;;18.50;99.90;;;;;;5070590;28;20021;-81
2021/08/30 01:49:05;;;;;;;23.48;14.85;;;18.60;99.90;;;;;;5070090;28;20033;-81
2021/08/30 01:51:32;;;;;;;20.95;14.30;;;18.50;99.90;;;;;;5063996;28;20025;-80
2021/08/30 01:53:58;;;;;;;23.92;15.02;;;18.50;99.90;;;;;;5068522;28;20036;-81
2021/08/30 01:56:27;;;;;;;21.73;14.48;;;18.50;99.90;;;;;;5065280;28;20028;-80
2021/08/30 02:01:40;;;;;;;26.23;14.77;;;18.50;99.90;;;;;;5065617;28;20062;-81
2021/08/30 02:04:06;;;;;;;20.88;13.57;;;18.50;99.90;;;;;;5055784;28;20021;-81
2021/08/30 02:06:34;;;;;;;21.50;14.98;;;18.50;99.90;;;;;;5061518;28;20029;-80
2021/08/30 02:09:01;;;;;;;23.98;16.30;;;18.40;99.90;;;;;;5069612;28;20482;-81
2021/08/30 02:11:34;;;;;;;23.67;14.73;;;18.40;99.90;;;;;;5060982;28;20033;-81
2021/08/30 02:14:07;;;;;;;20.67;13.30;;;18.40;99.90;;;;;;5071518;28;20086;-78
2021/08/30 02:16:33;;;;;;;22.67;14.48;;;18.40;99.90;;;;;;5055546;28;20021;-80
2021/08/30 02:19:20;;;;;;;25.90;15.63;;;18.40;99.90;;;;;;5070363;28;20033;-79
2021/08/30 02:22:13;;;;;;;24.50;14.50;;;18.40;99.90;;;;;;5060632;28;20032;-80
2021/08/30 02:25:02;;;;;;;23.58;12.93;;;18.30;99.90;;;;;;5067108;28;20063;-80
2021/08/30 02:27:45;;;;;;;30.55;13.45;;;18.40;99.90;;;;;;5063396;28;20094;-81
2021/08/30 02:30:20;;;;;;;26.67;13.90;;;18.40;99.90;;;;;;5070570;28;20025;-80
2021/08/30 02:32:49;;;;;;;23.15;13.57;;;18.40;99.90;;;;;;5069483;28;20056;-80
2021/08/30 02:35:20;;;;;;;26.73;13.85;;;18.40;99.90;;;;;;5067206;28;20020;-81
2021/08/30 02:37:48;;;;;;;22.83;14.77;;;18.40;99.90;;;;;;5069478;28;20032;-81
2021/08/30 02:40:16;;;;;;;24.13;15.68;;;18.40;99.90;;;;;;5075803;28;20056;-81
2021/08/30 02:42:42;;;;;;;23.02;13.73;;;18.20;99.90;;;;;;5057724;28;20415;-81
2021/08/30 02:45:10;;;;;;;22.75;13.10;;;18.30;99.90;;;;;;5057617;28;20028;-81
2021/08/30 02:47:37;;;;;;;24.30;14.60;;;18.30;99.90;;;;;;5072464;28;20005;-81
2021/08/30 02:50:04;;;;;;;22.95;13.50;;;18.40;99.90;;;;;;5070333;28;20047;-81
2021/08/30 02:52:31;;;;;;;20.83;14.38;;;18.30;99.90;;;;;;5059436;28;20024;-81
2021/08/30 02:54:57;;;;;;;22.58;16.00;;;18.30;99.90;;;;;;5054980;28;20036;-81
2021/08/30 02:57:25;;;;;;;23.20;14.57;;;18.40;99.90;;;;;;5055507;28;20020;-81
2021/08/30 02:59:52;;;;;;;21.63;15.18;;;18.40;99.90;;;;;;5062186;28;20035;-80
2021/08/30 03:02:22;;;;;;;21.10;15.05;;;18.40;99.90;;;;;;5070465;28;20027;-81
2021/08/30 03:04:49;;;;;;;20.77;13.73;;;18.40;99.90;;;;;;5067553;28;20029;-80
2021/08/30 03:07:15;;;;;;;25.27;15.27;;;18.30;99.90;;;;;;5064133;28;20025;-81
2021/08/30 03:09:42;;;;;;;26.27;15.68;;;18.30;99.90;;;;;;5072339;28;20048;-81
2021/08/30 03:12:09;;;;;;;22.20;16.02;;;18.30;99.90;;;;;;5067087;28;20029;-80
2021/08/30 03:14:39;;;;;;;21.63;15.00;;;18.40;99.90;;;;;;5051700;28;20545;-81
2021/08/30 03:17:09;;;;;;;20.58;15.13;;;18.40;99.90;;;;;;5073070;28;20017;-80
2021/08/30 03:19:38;;;;;;;27.38;15.02;;;18.40;99.90;;;;;;5062138;28;20387;-81
2021/08/30 03:22:04;;;;;;;26.80;15.68;;;18.40;99.90;;;;;;5061640;28;20028;-81
2021/08/30 03:24:31;;;;;;;25.38;15.50;;;18.40;99.90;;;;;;5066565;28;20389;-80
2021/08/30 03:26:58;;;;;;;28.55;14.88;;;18.40;99.90;;;;;;5071015;28;20021;-79
2021/08/30 03:29:24;;;;;;;29.33;14.45;;;18.30;99.90;;;;;;5070246;28;20024;-78
2021/08/30 03:31:51;;;;;;;21.50;13.35;;;18.40;99.90;;;;;;5070931;28;20583;-80
2021/08/30 03:34:20;;;;;;;22.65;15.45;;;18.30;99.90;;;;;;5063416;28;20024;-79
2021/08/30 03:36:46;;;;;;;22.70;15.43;;;18.40;99.90;;;;;;5067171;28;21061;-79
2021/08/30 03:39:12;;;;;;;25.40;14.65;;;18.40;99.90;;;;;;5070135;28;20043;-79
2021/08/30 03:41:39;;;;;;;23.73;15.57;;;18.40;99.90;;;;;;5068134;28;20090;-80
2021/08/30 03:44:05;;;;;;;23.27;14.68;;;18.40;99.90;;;;;;5067688;28;20066;-79
2021/08/30 03:46:31;;;;;;;25.75;16.05;;;18.40;99.90;;;;;;5070616;28;20518;-76
2021/08/30 03:48:58;;;;;;;26.02;16.67;;;18.40;99.90;;;;;;5065282;28;20070;-81
2021/08/30 03:51:25;;;;;;;25.75;16.00;;;18.40;99.90;;;;;;5063537;28;20043;-81
2021/08/30 03:53:52;;;;;;;21.20;14.98;;;18.40;99.90;;;;;;5063390;28;20426;-80
2021/08/30 03:56:18;;;;;;;23.77;15.88;;;18.40;99.90;;;;;;5064333;28;20024;-82
2021/08/30 03:58:45;;;;;;;22.95;16.20;;;18.30;99.90;;;;;;5053466;28;20027;-81
2021/08/30 04:01:14;;;;;;;26.48;16.73;;;18.20;99.90;;;;;;5061079;28;20038;-83
2021/08/30 04:03:43;;;;;;;22.85;15.10;;;18.20;99.90;;;;;;5066760;28;20023;-81
2021/08/30 04:06:10;;;;;;;24.50;15.30;;;18.20;99.90;;;;;;5073504;28;20028;-81
2021/08/30 04:08:36;;;;;;;22.85;14.63;;;18.20;99.90;;;;;;5062644;28;20025;-79
2021/08/30 04:11:03;;;;;;;21.73;14.32;;;18.30;99.90;;;;;;5061922;28;20389;-80
2021/08/30 04:13:28;;;;;;;22.67;16.23;;;18.30;99.90;;;;;;5069886;28;20074;-81
2021/08/30 04:15:54;;;;;;;23.25;15.45;;;18.30;99.90;;;;;;5070352;28;20485;-82
2021/08/30 04:18:20;;;;;;;22.88;15.15;;;18.30;99.90;;;;;;5072561;28;20023;-81
2021/08/30 04:20:46;;;;;;;22.50;14.57;;;18.30;99.90;;;;;;5066153;28;20040;-81
2021/08/30 04:23:12;;;;;;;22.75;15.02;;;18.20;99.90;;;;;;5063579;28;20013;-81
2021/08/30 04:25:38;;;;;;;23.80;14.35;;;18.30;99.90;;;;;;5071879;28;20046;-79
2021/08/30 04:28:03;;;;;;;21.80;14.20;;;18.30;99.90;;;;;;5066830;28;20427;-80
2021/08/30 04:30:29;;;;;;;20.80;14.45;;;18.30;99.90;;;;;;5066474;28;20055;-80
2021/08/30 04:32:55;;;;;;;21.50;13.05;;;18.30;99.90;;;;;;5072857;28;20528;-80
2021/08/30 04:35:21;;;;;;;23.55;15.00;;;18.30;99.90;;;;;;5064515;28;20081;-80
2021/08/30 04:37:47;;;;;;;23.33;15.15;;;18.30;99.90;;;;;;5053099;28;20049;-80
2021/08/30 04:40:13;;;;;;;21.55;14.43;;;18.30;99.90;;;;;;5064736;28;20076;-79
2021/08/30 04:42:39;;;;;;;25.23;16.02;;;18.20;99.90;;;;;;5064680;28;20024;-79
2021/08/30 04:45:06;;;;;;;22.50;13.98;;;18.20;99.90;;;;;;5067670;28;20021;-81
2021/08/30 04:47:32;;;;;;;21.30;15.48;;;18.30;99.90;;;;;;5071020;28;20063;-81
2021/08/30 04:49:58;;;;;;;21.75;14.50;;;18.30;99.90;;;;;;5063887;28;20081;-80
2021/08/30 04:52:24;;;;;;;22.20;14.10;;;18.30;99.90;;;;;;5060988;28;20037;-80
2021/08/30 04:54:49;;;;;;;22.00;14.13;;;18.30;99.90;;;;;;5046588;28;20367;-80
2021/08/30 04:57:15;;;;;;;21.65;14.60;;;18.20;99.90;;;;;;5073762;28;20043;-81
2021/08/30 04:59:42;;;;;;;24.90;14.60;;;18.30;99.90;;;;;;5054915;28;20110;-80
2021/08/30 05:02:08;;;;;;;20.80;14.38;;;18.30;99.90;;;;;;5074970;28;20553;-79
2021/08/30 05:04:34;;;;;;;26.42;16.17;;;18.40;99.90;;;;;;5065779;28;20028;-80
2021/08/30 05:07:04;;;;;;;23.63;15.68;;;18.30;99.90;;;;;;5065024;28;20083;-80
2021/08/30 05:09:30;;;;;;;26.63;15.00;;;18.20;99.90;;;;;;5062044;28;20053;-80
2021/08/30 05:11:56;;;;;;;21.58;14.77;;;18.30;99.90;;;;;;5063623;28;20039;-80
2021/08/30 05:14:21;;;;;;;23.92;14.10;;;18.40;99.90;;;;;;5065216;28;20037;-79
2021/08/30 05:16:47;;;;;;;22.88;14.70;;;18.30;99.90;;;;;;5072964;28;20493;-80
2021/08/30 05:19:13;;;;;;;22.65;14.25;;;18.40;99.90;;;;;;5054774;28;20017;-80
2021/08/30 05:21:39;;;;;;;25.40;15.27;;;18.40;99.90;;;;;;5072370;28;20484;-80
2021/08/30 05:24:07;;;;;;;22.95;14.55;;;18.40;99.90;;;;;;5070327;28;20026;-80
2021/08/30 05:26:34;;;;;;;25.83;16.38;;;18.30;99.90;;;;;;5065886;28;20033;-79
2021/08/30 05:28:59;;;;;;;21.58;14.60;;;18.40;99.90;;;;;;5067051;28;20024;-79
2021/08/30 05:31:25;;;;;;;23.40;14.75;;;18.40;99.90;;;;;;5073318;28;20017;-80
2021/08/30 05:33:51;;;;;;;23.00;13.75;;;18.40;99.90;;;;;;5066652;28;20103;-81
2021/08/30 05:36:17;;;;;;;20.00;13.82;;;18.40;99.90;;;;;;5064668;28;20016;-80
2021/08/30 05:38:42;;;;;;;21.60;14.35;;;18.40;99.90;;;;;;5070428;28;20127;-80
2021/08/30 05:41:08;;;;;;;22.08;14.80;;;18.40;99.90;;;;;;5053438;28;20056;-80
2021/08/30 05:43:34;;;;;;;22.95;13.85;;;18.30;99.90;;;;;;5066010;28;20008;-80
2021/08/30 05:45:59;;;;;;;22.05;14.68;;;18.30;99.90;;;;;;5064199;28;20048;-81
2021/08/30 05:48:25;;;;;;;21.10;14.82;;;18.30;99.90;;;;;;5070304;28;20031;-81
2021/08/30 05:50:51;;;;;;;22.02;13.75;;;18.40;99.90;;;;;;5067895;28;20024;-80
2021/08/30 05:53:16;;;;;;;21.42;14.70;;;18.40;99.90;;;;;;5070488;28;20035;-80
2021/08/30 05:55:42;;;;;;;23.15;15.20;;;18.40;99.90;;;;;;5068273;28;20032;-80
2021/08/30 05:58:08;;;;;;;25.55;15.10;;;18.40;99.90;;;;;;5068103;28;20028;-80
2021/08/30 06:00:33;;;;;;;24.98;15.40;;;18.50;99.90;;;;;;5066296;28;20047;-81
2021/08/30 06:02:59;;;;;;;23.10;14.82;;;18.50;99.90;;;;;;5066639;28;20106;-75
2021/08/30 06:05:25;;;;;;;22.83;13.82;;;18.40;99.90;;;;;;5055835;28;20031;-80
2021/08/30 06:07:50;;;;;;;23.23;15.25;;;18.40;99.90;;;;;;5066699;28;20021;-79
2021/08/30 06:10:16;;;;;;;25.40;16.67;;;18.40;99.90;;;;;;5062554;28;20025;-78
2021/08/30 06:12:42;;;;;;;25.85;16.42;;;18.40;99.90;;;;;;5070261;28;20483;-80
2021/08/30 06:15:09;;;;;;;28.55;16.70;;;18.50;99.90;;;;;;5064264;28;20028;-79
2021/08/30 06:17:34;;;;;;;25.73;15.98;;;18.50;99.90;;;;;;5067877;28;20032;-79
2021/08/30 06:20:00;;;;;;;25.60;16.63;;;18.30;99.90;;;;;;5068860;28;20036;-79
2021/08/30 06:22:26;;;;;;;29.27;16.65;;;18.40;99.90;;;;;;5069816;28;20581;-79
2021/08/30 06:24:51;;;;;;;26.45;16.77;;;18.50;99.90;;;;;;5069601;28;20509;-79
2021/08/30 06:27:20;;;;;;;30.08;17.65;;;18.40;99.90;;;;;;5070958;28;20020;-79
2021/08/30 06:29:46;;;;;;;27.83;16.98;;;18.40;99.90;;;;;;5055305;28;20035;-78
2021/08/30 06:32:12;;;;;;;25.10;18.08;;;18.40;99.90;;;;;;5068787;28;20469;-78
2021/08/30 06:34:38;;;;;;;27.85;18.33;;;18.40;99.90;;;;;;5068049;28;20028;-79
2021/08/30 06:37:04;;;;;;;32.33;18.27;;;18.40;99.90;;;;;;5080885;28;20035;-79
2021/08/30 06:39:30;;;;;;;36.67;22.27;;;18.40;99.90;;;;;;5074783;28;20040;-80
2021/08/30 06:41:55;;;;;;;33.53;21.02;;;18.30;99.90;;;;;;5061836;28;20059;-79
2021/08/30 06:44:21;;;;;;;30.02;19.45;;;18.30;99.90;;;;;;5067987;28;20032;-79
2021/08/30 06:46:47;;;;;;;34.08;19.92;;;18.30;99.90;;;;;;5067937;28;20028;-79
2021/08/30 06:49:13;;;;;;;31.55;20.00;;;18.50;99.90;;;;;;5071000;28;20029;-79
2021/08/30 06:51:38;;;;;;;37.42;21.67;;;18.50;99.90;;;;;;5064899;28;20036;-79
2021/08/30 06:54:04;;;;;;;31.15;18.92;;;18.60;99.90;;;;;;5069320;28;20112;-79
2021/08/30 06:56:30;;;;;;;30.63;20.08;;;18.60;99.90;;;;;;5075836;28;20056;-78
2021/08/30 06:58:55;;;;;;;35.42;20.73;;;18.60;99.90;;;;;;5066345;28;20040;-79
2021/08/30 07:01:21;;;;;;;38.97;20.95;;;18.60;99.90;;;;;;5065265;28;20046;-79
2021/08/30 07:03:48;;;;;;;34.97;20.25;;;18.50;99.90;;;;;;5053464;28;20044;-79
2021/08/30 07:06:14;;;;;;;33.42;20.08;;;18.60;99.90;;;;;;5069334;28;20521;-79
2021/08/30 07:08:40;;;;;;;38.22;21.33;;;18.70;99.90;;;;;;5068289;28;20119;-78
2021/08/30 07:11:06;;;;;;;39.38;22.30;;;18.60;99.90;;;;;;5048139;28;20103;-80
2021/08/30 07:13:32;;;;;;;37.38;22.92;;;18.60;99.90;;;;;;5071169;28;20452;-80
2021/08/30 07:15:57;;;;;;;32.13;20.42;;;18.60;99.90;;;;;;5061584;28;20074;-76
2021/08/30 07:18:23;;;;;;;37.70;23.15;;;18.60;99.90;;;;;;5055932;28;20025;-79
2021/08/30 07:20:49;;;;;;;36.72;20.50;;;18.70;99.90;;;;;;5071973;28;20032;-79
2021/08/30 07:23:18;;;;;;;37.38;21.52;;;18.70;99.90;;;;;;5072539;28;20921;-81
2021/08/30 07:25:44;;;;;;;35.33;20.75;;;18.70;99.90;;;;;;5067575;28;20039;-79
2021/08/30 07:28:10;;;;;;;33.03;21.85;;;18.80;99.90;;;;;;5071524;28;20552;-79
2021/08/30 07:30:36;;;;;;;35.40;20.55;;;18.80;99.90;;;;;;5061890;28;20028;-79
2021/08/30 07:33:03;;;;;;;31.02;19.95;;;18.80;99.90;;;;;;5062511;28;20031;-79
2021/08/30 07:35:28;;;;;;;33.60;19.90;;;18.80;99.90;;;;;;5065867;28;20032;-79
2021/08/30 07:37:55;;;;;;;37.50;22.20;;;18.80;99.90;;;;;;5071630;28;20024;-80
2021/08/30 07:40:22;;;;;;;29.40;21.10;;;18.90;99.90;;;;;;5064089;28;20051;-79
2021/08/30 07:42:48;;;;;;;33.53;19.88;;;19.00;99.90;;;;;;5045582;28;20244;-78
2021/08/30 07:45:13;;;;;;;29.13;19.30;;;19.00;99.90;;;;;;5050027;28;20048;-79
2021/08/30 07:47:41;;;;;;;29.50;19.58;;;19.00;99.90;;;;;;5069499;28;20036;-79
2021/08/30 07:50:08;;;;;;;39.83;21.83;;;19.00;99.90;;;;;;5052778;28;20390;-80
2021/08/30 07:52:35;;;;;;;30.73;19.50;;;19.10;99.90;;;;;;5068783;28;20075;-79
2021/08/30 07:55:07;;;;;;;;;;;19.20;99.90;;;;;;5068454;28;20040;-80
2021/08/30 07:57:34;;;;;;;34.28;22.30;;;19.20;99.90;;;;;;5073131;28;19908;-79
2021/08/30 07:59:59;;;;;;;37.45;21.73;;;19.10;99.90;;;;;;5071387;28;20033;-78
2021/08/30 08:02:25;;;;;;;30.40;20.77;;;19.10;99.90;;;;;;5067762;28;20595;-79
2021/08/30 08:04:51;;;;;;;40.00;21.45;;;19.20;99.90;;;;;;5067792;28;20064;-79
2021/08/30 08:07:16;;;;;;;37.03;20.95;;;19.20;99.90;;;;;;5069621;28;20017;-78
2021/08/30 08:09:42;;;;;;;35.83;21.92;;;19.20;99.90;;;;;;5066344;28;20377;-79
2021/08/30 08:12:08;;;;;;;32.97;21.55;;;19.30;99.90;;;;;;5051734;28;20570;-80
2021/08/30 08:14:34;;;;;;;32.40;22.30;;;19.10;99.90;;;;;;5061527;28;20104;-80
2021/08/30 08:17:00;;;;;;;33.15;19.75;;;19.20;99.90;;;;;;5070264;28;20040;-79
2021/08/30 08:19:26;;;;;;;29.25;21.25;;;19.20;99.90;;;;;;5071217;28;20041;-79
2021/08/30 08:21:54;;;;;;;33.47;21.05;;;19.30;99.90;;;;;;5063725;28;20036;-77
2021/08/30 08:24:23;;;;;;;35.95;20.50;;;19.40;99.90;;;;;;5066097;28;20040;-80
2021/08/30 08:26:49;;;;;;;35.35;20.23;;;19.50;99.90;;;;;;5066533;28;20070;-80
2021/08/30 08:29:14;;;;;;;34.13;21.52;;;19.50;99.90;;;;;;5067032;28;20028;-79
2021/08/30 08:31:40;;;;;;;32.72;21.38;;;19.60;99.90;;;;;;5070923;28;20078;-79
2021/08/30 08:34:06;;;;;;;37.08;20.35;;;19.60;99.90;;;;;;5071207;28;20481;-79
2021/08/30 08:36:32;;;;;;;32.75;21.10;;;19.60;99.90;;;;;;5075927;28;20488;-80
2021/08/30 08:38:58;;;;;;;31.85;21.23;;;19.50;99.90;;;;;;5051808;28;20039;-78
2021/08/30 08:41:24;;;;;;;31.83;21.73;;;19.50;99.90;;;;;;5075544;28;20559;-79
2021/08/30 08:44:09;;;;;;;34.92;21.70;;;19.40;99.90;;;;;;5072782;28;20046;-79
2021/08/30 08:46:38;;;;;;;34.50;20.95;;;19.40;99.90;;;;;;5068597;28;20021;-79
2021/08/30 08:49:04;;;;;;;35.13;21.92;;;19.30;99.90;;;;;;5070485;28;20035;-79
2021/08/30 08:51:30;;;;;;;34.75;20.92;;;19.30;99.90;;;;;;5060657;28;20025;-79
2021/08/30 08:53:56;;;;;;;32.17;21.15;;;19.30;99.90;;;;;;5070432;28;20025;-78
2021/08/30 08:56:26;;;;;;;27.95;19.30;;;19.40;99.90;;;;;;5071452;28;20389;-79
2021/08/30 08:58:52;;;;;;;34.55;21.45;;;19.40;99.90;;;;;;5050122;28;20083;-79
2021/08/30 09:01:26;;;;;;;30.10;20.33;;;19.50;99.90;;;;;;5065073;28;20518;-78
2021/08/30 09:03:55;;;;;;;27.17;20.30;;;19.60;99.90;;;;;;5074863;28;20012;-79
2021/08/30 09:06:40;;;;;;;33.20;21.50;;;19.70;99.90;;;;;;5075424;28;20024;-79
2021/08/30 09:09:11;;;;;;;28.35;20.48;;;19.70;99.90;;;;;;5059212;28;20107;-80
2021/08/30 09:11:38;;;;;;;29.80;19.33;;;19.80;99.90;;;;;;5068164;28;20027;-80
2021/08/30 09:14:19;;;;;;;31.92;20.42;;;19.90;99.90;;;;;;5074575;28;20115;-78
2021/08/30 09:16:47;;;;;;;30.85;18.40;;;20.00;99.90;;;;;;5073029;28;20012;-77
2021/08/30 09:19:16;;;;;;;36.92;20.75;;;20.00;99.90;;;;;;5073059;28;20043;-77
2021/08/30 09:21:47;;;;;;;36.10;21.33;;;20.10;99.90;;;;;;5074506;28;20025;-78
2021/08/30 09:24:15;;;;;;;32.67;19.75;;;20.10;99.90;;;;;;5072012;28;20090;-78
2021/08/30 09:26:49;;;;;;;27.70;19.60;;;20.20;99.90;;;;;;5072593;28;20036;-79
2021/08/30 09:29:21;;;;;;;29.35;20.15;;;20.20;99.90;;;;;;5069064;28;20016;-79
2021/08/30 09:32:10;;;;;;;31.15;20.65;;;20.20;99.90;;;;;;5074027;28;20028;-78
2021/08/30 09:34:39;;;;;;;24.10;17.92;;;20.30;99.90;;;;;;5072371;28;20023;-78
2021/08/30 09:37:12;;;;;;;26.60;18.88;;;20.20;99.90;;;;;;5070864;28;20024;-77
2021/08/30 09:39:47;;;;;;;30.00;19.77;;;20.20;99.90;;;;;;5069409;28;20498;-78
2021/08/30 09:42:13;;;;;;;28.40;19.38;;;20.20;99.90;;;;;;5069687;28;20075;-78
2021/08/30 09:44:39;;;;;;;23.60;18.27;;;20.30;99.90;;;;;;5054911;28;20033;-77
2021/08/30 09:47:12;;;;;;;27.83;18.45;;;20.40;99.90;;;;;;5073916;28;20085;-77
2021/08/30 09:49:39;;;;;;;29.13;19.00;;;20.50;99.90;;;;;;5066334;28;20031;-78
2021/08/30 09:52:05;;;;;;;24.58;17.85;;;20.70;99.90;;;;;;5071540;28;20055;-78
2021/08/30 09:54:31;;;;;;;27.75;17.55;;;21.00;99.90;;;;;;5065153;28;20068;-77
2021/08/30 09:56:58;;;;;;;25.30;17.60;;;21.00;99.90;;;;;;5056564;28;20019;-77
2021/08/30 09:59:25;;;;;;;24.20;18.15;;;21.00;99.90;;;;;;5066947;28;20021;-78
2021/08/30 10:01:53;;;;;;;29.33;18.13;;;21.00;99.90;;;;;;5071228;28;20028;-77
2021/08/30 10:04:20;;;;;;;32.13;17.33;;;21.00;99.90;;;;;;5068262;28;20055;-78
2021/08/30 10:06:49;;;;;;;21.48;16.73;;;21.00;99.90;;;;;;5069976;28;20497;-78
2021/08/30 10:09:16;;;;;;;21.35;15.73;;;21.00;99.90;;;;;;5076850;28;20052;-78
2021/08/30 10:11:43;;;;;;;23.73;16.30;;;20.80;99.90;;;;;;5073177;28;20070;-78
2021/08/30 10:14:19;;;;;;;23.00;17.08;;;20.70;99.90;;;;;;5068489;28;20137;-78
2021/08/30 10:16:46;;;;;;;24.98;18.08;;;20.70;99.90;;;;;;5066602;28;20020;-79
2021/08/30 10:19:12;;;;;;;28.08;18.52;;;20.70;99.90;;;;;;5068293;28;20484;-77
2021/08/30 10:21:46;;;;;;;24.95;16.63;;;20.70;99.90;;;;;;5069486;28;20041;-79
2021/08/30 10:24:16;;;;;;;22.75;16.77;;;20.80;99.90;;;;;;5064666;28;20497;-78
2021/08/30 10:26:45;;;;;;;28.73;17.85;;;20.90;99.90;;;;;;5066454;28;20038;-78
2021/08/30 10:29:11;;;;;;;20.30;14.88;;;20.90;99.90;;;;;;5072223;28;20028;-79
2021/08/30 10:31:52;;;;;;;21.58;15.05;;;20.90;99.90;;;;;;5075065;28;20059;-77
2021/08/30 10:34:27;;;;;;;20.65;14.70;;;20.90;99.90;;;;;;5073150;28;20040;-77
2021/08/30 10:36:53;;;;;;;23.25;15.20;;;20.90;99.90;;;;;;5068214;28;20020;-78
2021/08/30 10:39:19;;;;;;;24.70;16.67;;;20.90;99.90;;;;;;5070420;28;20031;-78
2021/08/30 10:41:46;;;;;;;19.58;14.20;;;20.90;99.90;;;;;;5050189;28;20017;-78
2021/08/30 10:44:17;;;;;;;20.40;14.23;;;20.90;99.90;;;;;;5067256;28;20028;-77
2021/08/30 10:46:50;;;;;;;21.70;13.95;;;21.00;99.90;;;;;;5065833;28;20029;-77
2021/08/30 10:49:23;;;;;;;25.10;17.35;;;21.10;99.90;;;;;;5067852;28;20458;-77
2021/08/30 10:51:49;;;;;;;20.52;13.43;;;21.10;99.90;;;;;;5052337;28;20024;-78
2021/08/30 10:54:19;;;;;;;19.10;13.70;;;21.10;99.90;;;;;;5072871;28;20016;-78
2021/08/30 10:57:01;;;;;;;34.67;18.08;;;21.10;99.90;;;;;;5054334;28;20024;-77
2021/08/30 10:59:29;;;;;;;21.70;15.55;;;21.00;99.90;;;;;;5063472;28;20465;-79
2021/08/30 11:01:59;;;;;;;18.60;14.73;;;21.00;99.90;;;;;;5065261;28;20024;-79
2021/08/30 11:04:36;;;;;;;20.52;14.13;;;21.00;99.90;;;;;;5067546;28;20322;-77
2021/08/30 11:07:04;;;;;;;19.20;16.17;;;21.20;99.90;;;;;;5037080;28;20021;-78
2021/08/30 11:09:30;;;;;;;19.63;13.77;;;21.20;99.90;;;;;;5063336;28;20028;-78
2021/08/30 11:12:10;;;;;;;20.25;13.18;;;21.30;99.90;;;;;;5068741;28;20126;-78
2021/08/30 11:14:36;;;;;;;25.05;14.65;;;21.30;99.90;;;;;;5065043;28;20025;-78
2021/08/30 11:17:03;;;;;;;25.05;15.35;;;21.30;99.90;;;;;;5051398;28;20028;-78
2021/08/30 11:19:29;;;;;;;20.15;14.40;;;21.30;99.90;;;;;;5069743;28;20087;-77
2021/08/30 11:21:58;;;;;;;20.35;14.77;;;21.20;99.90;;;;;;5067799;28;20048;-76
2021/08/30 11:24:43;;;;;;;20.63;14.05;;;21.30;99.90;;;;;;5057716;28;20090;-78
2021/08/30 11:27:20;;;;;;;22.83;15.02;;;21.40;99.90;;;;;;5054685;28;20029;-78
2021/08/30 11:29:50;;;;;;;16.40;13.80;;;21.50;99.90;;;;;;5070846;28;20038;-77
2021/08/30 11:32:18;;;;;;;19.63;14.55;;;21.60;99.90;;;;;;5070138;28;20718;-79
2021/08/30 11:34:46;;;;;;;19.13;14.57;;;21.70;99.90;;;;;;5051107;28;20052;-78
2021/08/30 11:37:16;;;;;;;20.05;13.55;;;21.70;99.90;;;;;;5047802;28;20422;-76
2021/08/30 11:39:46;;;;;;;18.58;12.80;;;21.80;99.90;;;;;;5069280;28;20358;-79
2021/08/30 11:42:14;;;;;;;16.35;13.15;;;21.70;99.90;;;;;;5067889;28;20093;-78
2021/08/30 11:44:42;;;;;;;15.75;12.52;;;21.70;99.90;;;;;;5070802;28;20104;-77
2021/08/30 11:47:11;;;;;;;15.73;12.57;;;21.70;99.90;;;;;;5066777;28;20029;-77
2021/08/30 11:49:45;;;;;;;16.88;12.60;;;21.50;99.90;;;;;;5069805;28;20051;-77
2021/08/30 11:52:13;;;;;;;16.70;12.73;;;21.50;99.90;;;;;;5066929;28;20036;-77
2021/08/30 11:54:41;;;;;;;18.45;12.57;;;21.50;99.90;;;;;;5069228;28;20025;-78
2021/08/30 11:57:12;;;;;;;15.80;12.35;;;21.60;99.90;;;;;;5071707;28;20070;-77
2021/08/30 11:59:41;;;;;;;13.60;11.90;;;21.70;99.90;;;;;;5053399;28;20277;-79
2021/08/30 12:02:09;;;;;;;16.45;12.27;;;21.70;99.90;;;;;;5066631;28;20056;-78
2021/08/30 12:04:37;;;;;;;17.88;12.50;;;21.90;99.90;;;;;;5067164;28;20020;-81
2021/08/30 12:07:06;;;;;;;16.58;11.40;;;21.90;99.90;;;;;;5052663;28;20032;-78
2021/08/30 12:09:48;;;;;;;16.73;10.93;;;21.80;99.90;;;;;;5066927;28;20040;-77
2021/08/30 12:12:22;;;;;;;18.00;11.32;;;21.90;99.90;;;;;;5064271;28;20032;-78
2021/08/30 12:15:02;;;;;;;18.85;13.23;;;21.80;99.90;;;;;;5065064;28;20095;-79
2021/08/30 12:17:41;;;;;;;20.02;12.20;;;21.80;99.90;;;;;;5069159;28;20491;-78
2021/08/30 12:20:10;;;;;;;20.40;13.40;;;21.80;99.90;;;;;;5051885;28;20444;-79
2021/08/30 12:22:44;;;;;;;14.70;11.60;;;21.80;99.90;;;;;;5066212;28;20021;-79
2021/08/30 12:25:16;;;;;;;17.25;11.93;;;21.70;99.90;;;;;;5068095;28;20052;-77
2021/08/30 12:27:43;;;;;;;16.65;11.80;;;21.60;99.90;;;;;;5064717;28;20032;-78
2021/08/30 12:30:22;;;;;;;16.23;11.90;;;21.60;99.90;;;;;;5068034;28;20031;-77
2021/08/30 12:32:49;;;;;;;15.68;10.60;;;21.60;99.90;;;;;;5069266;28;20412;-79
2021/08/30 12:35:20;;;;;;;19.48;11.73;;;21.80;99.90;;;;;;5065459;28;20029;-78
2021/08/30 12:37:49;;;;;;;15.68;11.02;;;21.90;99.90;;;;;;5068268;28;20112;-78